sensor_id;sensor_type;location;lat;lon;timestamp;P1;durP1;ratioP1;P2;durP2;ratioP2
20844;SDS011;10583;49.084;8.646;2023-03-16T00:01:14;12.40;;;12.40;;
20844;SDS011;10583;49.084;8.646;2023-03-16T00:03:41;12.33;;;12.23;;
20844;SDS011;10583;49.084;8.646;2023-03-16T00:06:08;12.90;;;12.80;;
20844;SDS011;10583;49.084;8.646;2023-03-16T00:08:35;12.10;;;12.10;;
20844;SDS011;10583;49.084;8.646;2023-03-16T00:11:03;14.90;;;14.80;;
20844;SDS011;10583;49.084;8.646;2023-03-16T00:13:31;14.33;;;14.23;;
20844;SDS011;10583;49.084;8.646;2023-03-16T00:15:59;13.83;;;13.83;;
20844;SDS011;10583;49.084;8.646;2023-03-16T00:18:28;14.97;;;14.87;;
20844;SDS011;10583;49.084;8.646;2023-03-16T00:21:02;18.70;;;18.60;;
20844;SDS011;10583;49.084;8.646;2023-03-16T00:23:30;17.83;;;17.73;;
20844;SDS011;10583;49.084;8.646;2023-03-16T00:25:59;16.43;;;16.33;;
20844;SDS011;10583;49.084;8.646;2023-03-16T00:28:28;15.53;;;15.43;;
20844;SDS011;10583;49.084;8.646;2023-03-16T00:31:00;14.40;;;14.30;;
20844;SDS011;10583;49.084;8.646;2023-03-16T00:33:26;14.57;;;14.47;;
20844;SDS011;10583;49.084;8.646;2023-03-16T00:35:54;13.03;;;13.03;;
20844;SDS011;10583;49.084;8.646;2023-03-16T00:38:28;13.57;;;13.57;;
20844;SDS011;10583;49.084;8.646;2023-03-16T00:40:56;12.90;;;12.90;;
20844;SDS011;10583;49.084;8.646;2023-03-16T00:43:23;11.93;;;11.93;;
20844;SDS011;10583;49.084;8.646;2023-03-16T00:45:56;12.40;;;12.40;;
20844;SDS011;10583;49.084;8.646;2023-03-16T00:48:26;11.80;;;11.80;;
20844;SDS011;10583;49.084;8.646;2023-03-16T00:50:53;11.47;;;11.47;;
20844;SDS011;10583;49.084;8.646;2023-03-16T00:53:19;11.70;;;11.70;;
20844;SDS011;10583;49.084;8.646;2023-03-16T00:55:47;11.03;;;11.03;;
20844;SDS011;10583;49.084;8.646;2023-03-16T00:58:13;10.90;;;10.90;;
20844;SDS011;10583;49.084;8.646;2023-03-16T01:00:40;11.20;;;11.20;;
20844;SDS011;10583;49.084;8.646;2023-03-16T01:03:07;11.57;;;11.57;;
20844;SDS011;10583;49.084;8.646;2023-03-16T01:05:39;12.83;;;12.83;;
20844;SDS011;10583;49.084;8.646;2023-03-16T01:08:06;11.37;;;11.37;;
20844;SDS011;10583;49.084;8.646;2023-03-16T01:10:33;11.37;;;11.37;;
20844;SDS011;10583;49.084;8.646;2023-03-16T01:13:00;10.83;;;10.83;;
20844;SDS011;10583;49.084;8.646;2023-03-16T01:15:27;11.27;;;11.27;;
20844;SDS011;10583;49.084;8.646;2023-03-16T01:17:54;11.03;;;11.03;;
20844;SDS011;10583;49.084;8.646;2023-03-16T01:20:21;10.80;;;10.80;;
20844;SDS011;10583;49.084;8.646;2023-03-16T01:22:49;11.30;;;11.30;;
20844;SDS011;10583;49.084;8.646;2023-03-16T01:25:16;11.20;;;11.20;;
20844;SDS011;10583;49.084;8.646;2023-03-16T01:27:43;11.77;;;11.77;;
20844;SDS011;10583;49.084;8.646;2023-03-16T01:30:10;13.73;;;13.70;;
20844;SDS011;10583;49.084;8.646;2023-03-16T01:32:37;14.97;;;14.87;;
20844;SDS011;10583;49.084;8.646;2023-03-16T01:35:04;18.40;;;18.30;;
20844;SDS011;10583;49.084;8.646;2023-03-16T01:37:33;17.77;;;17.67;;
20844;SDS011;10583;49.084;8.646;2023-03-16T01:40:01;16.33;;;16.23;;
20844;SDS011;10583;49.084;8.646;2023-03-16T01:42:30;16.87;;;16.77;;
20844;SDS011;10583;49.084;8.646;2023-03-16T01:44:57;15.13;;;15.03;;
20844;SDS011;10583;49.084;8.646;2023-03-16T01:47:29;14.27;;;14.17;;
20844;SDS011;10583;49.084;8.646;2023-03-16T01:50:01;16.10;;;16.00;;
20844;SDS011;10583;49.084;8.646;2023-03-16T01:52:29;17.37;;;17.27;;
20844;SDS011;10583;49.084;8.646;2023-03-16T01:54:59;15.97;;;15.87;;
20844;SDS011;10583;49.084;8.646;2023-03-16T01:57:32;14.17;;;14.17;;
20844;SDS011;10583;49.084;8.646;2023-03-16T02:00:04;14.37;;;14.37;;
20844;SDS011;10583;49.084;8.646;2023-03-16T02:02:35;15.13;;;15.03;;
20844;SDS011;10583;49.084;8.646;2023-03-16T02:05:05;16.73;;;16.63;;
20844;SDS011;10583;49.084;8.646;2023-03-16T02:07:37;23.00;;;22.90;;
20844;SDS011;10583;49.084;8.646;2023-03-16T02:10:10;24.63;;;24.53;;
20844;SDS011;10583;49.084;8.646;2023-03-16T02:12:39;23.90;;;23.80;;
20844;SDS011;10583;49.084;8.646;2023-03-16T02:15:08;21.90;;;21.80;;
20844;SDS011;10583;49.084;8.646;2023-03-16T02:17:36;21.00;;;20.90;;
20844;SDS011;10583;49.084;8.646;2023-03-16T02:20:06;22.73;;;22.63;;
20844;SDS011;10583;49.084;8.646;2023-03-16T02:22:43;21.00;;;20.90;;
20844;SDS011;10583;49.084;8.646;2023-03-16T02:25:13;21.37;;;21.27;;
20844;SDS011;10583;49.084;8.646;2023-03-16T02:27:45;21.73;;;21.63;;
20844;SDS011;10583;49.084;8.646;2023-03-16T02:30:23;23.57;;;23.47;;
20844;SDS011;10583;49.084;8.646;2023-03-16T02:32:50;20.57;;;20.47;;
20844;SDS011;10583;49.084;8.646;2023-03-16T02:35:19;23.03;;;22.83;;
20844;SDS011;10583;49.084;8.646;2023-03-16T02:37:46;23.90;;;23.80;;
20844;SDS011;10583;49.084;8.646;2023-03-16T02:40:15;21.23;;;21.13;;
20844;SDS011;10583;49.084;8.646;2023-03-16T02:42:49;23.07;;;22.97;;
20844;SDS011;10583;49.084;8.646;2023-03-16T02:45:20;19.63;;;19.53;;
20844;SDS011;10583;49.084;8.646;2023-03-16T02:47:49;18.97;;;18.87;;
20844;SDS011;10583;49.084;8.646;2023-03-16T02:50:18;18.43;;;18.33;;
20844;SDS011;10583;49.084;8.646;2023-03-16T02:52:45;21.33;;;21.23;;
20844;SDS011;10583;49.084;8.646;2023-03-16T02:55:12;22.53;;;22.43;;
20844;SDS011;10583;49.084;8.646;2023-03-16T02:57:39;22.53;;;22.43;;
20844;SDS011;10583;49.084;8.646;2023-03-16T03:00:06;19.93;;;19.83;;
20844;SDS011;10583;49.084;8.646;2023-03-16T03:02:41;22.13;;;22.03;;
20844;SDS011;10583;49.084;8.646;2023-03-16T03:05:09;21.53;;;21.43;;
20844;SDS011;10583;49.084;8.646;2023-03-16T03:07:36;24.17;;;24.07;;
20844;SDS011;10583;49.084;8.646;2023-03-16T03:10:03;25.33;;;25.23;;
20844;SDS011;10583;49.084;8.646;2023-03-16T03:12:30;24.37;;;24.23;;
20844;SDS011;10583;49.084;8.646;2023-03-16T03:14:58;23.73;;;23.63;;
20844;SDS011;10583;49.084;8.646;2023-03-16T03:17:25;23.00;;;22.90;;
20844;SDS011;10583;49.084;8.646;2023-03-16T03:19:54;24.87;;;24.77;;
20844;SDS011;10583;49.084;8.646;2023-03-16T03:22:22;20.50;;;20.40;;
20844;SDS011;10583;49.084;8.646;2023-03-16T03:24:50;20.80;;;20.70;;
20844;SDS011;10583;49.084;8.646;2023-03-16T03:27:17;23.10;;;23.00;;
20844;SDS011;10583;49.084;8.646;2023-03-16T03:29:44;22.90;;;22.80;;
20844;SDS011;10583;49.084;8.646;2023-03-16T03:32:11;19.03;;;18.93;;
20844;SDS011;10583;49.084;8.646;2023-03-16T03:34:38;21.23;;;21.13;;
20844;SDS011;10583;49.084;8.646;2023-03-16T03:37:06;22.67;;;22.57;;
20844;SDS011;10583;49.084;8.646;2023-03-16T03:39:34;21.27;;;21.17;;
20844;SDS011;10583;49.084;8.646;2023-03-16T03:42:01;22.97;;;22.87;;
20844;SDS011;10583;49.084;8.646;2023-03-16T03:44:27;20.70;;;20.60;;
20844;SDS011;10583;49.084;8.646;2023-03-16T03:46:56;22.43;;;22.33;;
20844;SDS011;10583;49.084;8.646;2023-03-16T03:49:26;22.93;;;22.83;;
20844;SDS011;10583;49.084;8.646;2023-03-16T03:51:53;23.13;;;23.03;;
20844;SDS011;10583;49.084;8.646;2023-03-16T03:54:20;22.97;;;22.87;;
20844;SDS011;10583;49.084;8.646;2023-03-16T03:56:48;20.57;;;20.47;;
20844;SDS011;10583;49.084;8.646;2023-03-16T03:59:16;24.90;;;24.80;;
20844;SDS011;10583;49.084;8.646;2023-03-16T04:01:43;23.40;;;23.30;;
20844;SDS011;10583;49.084;8.646;2023-03-16T04:04:09;21.57;;;21.47;;
20844;SDS011;10583;49.084;8.646;2023-03-16T04:06:36;24.60;;;24.50;;
20844;SDS011;10583;49.084;8.646;2023-03-16T04:09:03;22.83;;;22.73;;
20844;SDS011;10583;49.084;8.646;2023-03-16T04:11:29;23.20;;;23.10;;
20844;SDS011;10583;49.084;8.646;2023-03-16T04:13:57;23.70;;;23.60;;
20844;SDS011;10583;49.084;8.646;2023-03-16T04:16:24;25.33;;;25.23;;
20844;SDS011;10583;49.084;8.646;2023-03-16T04:18:51;23.67;;;23.57;;
20844;SDS011;10583;49.084;8.646;2023-03-16T04:21:19;25.57;;;25.47;;
20844;SDS011;10583;49.084;8.646;2023-03-16T04:23:46;25.93;;;25.73;;
20844;SDS011;10583;49.084;8.646;2023-03-16T04:26:14;25.23;;;25.13;;
20844;SDS011;10583;49.084;8.646;2023-03-16T04:28:41;24.87;;;24.77;;
20844;SDS011;10583;49.084;8.646;2023-03-16T04:31:09;25.67;;;25.57;;
20844;SDS011;10583;49.084;8.646;2023-03-16T04:33:37;25.57;;;25.47;;
20844;SDS011;10583;49.084;8.646;2023-03-16T04:36:06;24.23;;;24.13;;
20844;SDS011;10583;49.084;8.646;2023-03-16T04:38:33;23.87;;;23.77;;
20844;SDS011;10583;49.084;8.646;2023-03-16T04:41:00;23.27;;;23.17;;
20844;SDS011;10583;49.084;8.646;2023-03-16T04:43:28;22.77;;;22.67;;
20844;SDS011;10583;49.084;8.646;2023-03-16T04:46:00;22.73;;;22.63;;
20844;SDS011;10583;49.084;8.646;2023-03-16T04:48:29;24.17;;;24.07;;
20844;SDS011;10583;49.084;8.646;2023-03-16T04:50:56;26.27;;;26.07;;
20844;SDS011;10583;49.084;8.646;2023-03-16T04:53:23;23.97;;;23.87;;
20844;SDS011;10583;49.084;8.646;2023-03-16T04:55:50;24.63;;;24.53;;
20844;SDS011;10583;49.084;8.646;2023-03-16T04:58:17;25.63;;;25.53;;
20844;SDS011;10583;49.084;8.646;2023-03-16T05:00:43;28.93;;;28.73;;
20844;SDS011;10583;49.084;8.646;2023-03-16T05:03:10;28.23;;;28.03;;
20844;SDS011;10583;49.084;8.646;2023-03-16T05:05:39;27.90;;;27.70;;
20844;SDS011;10583;49.084;8.646;2023-03-16T05:08:06;29.77;;;29.57;;
20844;SDS011;10583;49.084;8.646;2023-03-16T05:10:34;31.03;;;30.83;;
20844;SDS011;10583;49.084;8.646;2023-03-16T05:13:01;27.53;;;27.33;;
20844;SDS011;10583;49.084;8.646;2023-03-16T05:15:28;27.23;;;27.03;;
20844;SDS011;10583;49.084;8.646;2023-03-16T05:17:55;27.93;;;27.73;;
20844;SDS011;10583;49.084;8.646;2023-03-16T05:20:22;28.90;;;28.70;;
20844;SDS011;10583;49.084;8.646;2023-03-16T05:22:51;28.20;;;28.00;;
20844;SDS011;10583;49.084;8.646;2023-03-16T05:25:18;30.57;;;30.37;;
20844;SDS011;10583;49.084;8.646;2023-03-16T05:27:46;31.83;;;31.63;;
20844;SDS011;10583;49.084;8.646;2023-03-16T05:30:15;29.70;;;29.50;;
20844;SDS011;10583;49.084;8.646;2023-03-16T05:32:43;30.93;;;30.73;;
20844;SDS011;10583;49.084;8.646;2023-03-16T05:35:10;30.13;;;29.93;;
20844;SDS011;10583;49.084;8.646;2023-03-16T05:37:38;30.00;;;29.80;;
20844;SDS011;10583;49.084;8.646;2023-03-16T05:40:08;27.90;;;27.70;;
20844;SDS011;10583;49.084;8.646;2023-03-16T05:42:41;26.27;;;26.07;;
20844;SDS011;10583;49.084;8.646;2023-03-16T05:45:08;24.83;;;24.73;;
20844;SDS011;10583;49.084;8.646;2023-03-16T05:47:35;22.63;;;22.53;;
20844;SDS011;10583;49.084;8.646;2023-03-16T05:50:02;22.73;;;22.63;;
20844;SDS011;10583;49.084;8.646;2023-03-16T05:52:29;23.97;;;23.87;;
20844;SDS011;10583;49.084;8.646;2023-03-16T05:54:57;24.17;;;24.07;;
20844;SDS011;10583;49.084;8.646;2023-03-16T05:57:25;23.50;;;23.40;;
20844;SDS011;10583;49.084;8.646;2023-03-16T05:59:53;21.60;;;21.50;;
20844;SDS011;10583;49.084;8.646;2023-03-16T06:02:19;19.57;;;19.47;;
20844;SDS011;10583;49.084;8.646;2023-03-16T06:04:46;19.47;;;19.37;;
20844;SDS011;10583;49.084;8.646;2023-03-16T06:07:13;19.73;;;19.63;;
20844;SDS011;10583;49.084;8.646;2023-03-16T06:09:39;18.83;;;18.73;;
20844;SDS011;10583;49.084;8.646;2023-03-16T06:12:06;20.50;;;20.40;;
20844;SDS011;10583;49.084;8.646;2023-03-16T06:14:34;19.77;;;19.67;;
20844;SDS011;10583;49.084;8.646;2023-03-16T06:17:01;21.70;;;21.60;;
20844;SDS011;10583;49.084;8.646;2023-03-16T06:19:28;21.43;;;21.33;;
20844;SDS011;10583;49.084;8.646;2023-03-16T06:21:55;21.40;;;21.30;;
20844;SDS011;10583;49.084;8.646;2023-03-16T06:24:22;19.80;;;19.70;;
20844;SDS011;10583;49.084;8.646;2023-03-16T06:26:49;21.63;;;21.53;;
20844;SDS011;10583;49.084;8.646;2023-03-16T06:29:15;21.10;;;21.00;;
20844;SDS011;10583;49.084;8.646;2023-03-16T06:31:43;18.87;;;18.77;;
20844;SDS011;10583;49.084;8.646;2023-03-16T06:34:10;19.13;;;19.03;;
20844;SDS011;10583;49.084;8.646;2023-03-16T06:36:37;18.30;;;18.20;;
20844;SDS011;10583;49.084;8.646;2023-03-16T06:39:03;18.57;;;18.47;;
20844;SDS011;10583;49.084;8.646;2023-03-16T06:41:30;19.33;;;19.23;;
20844;SDS011;10583;49.084;8.646;2023-03-16T06:43:58;18.60;;;18.50;;
20844;SDS011;10583;49.084;8.646;2023-03-16T06:46:25;18.97;;;18.87;;
20844;SDS011;10583;49.084;8.646;2023-03-16T06:48:53;17.87;;;17.77;;
20844;SDS011;10583;49.084;8.646;2023-03-16T06:51:20;18.07;;;17.97;;
20844;SDS011;10583;49.084;8.646;2023-03-16T06:53:46;18.87;;;18.77;;
20844;SDS011;10583;49.084;8.646;2023-03-16T06:56:13;18.77;;;18.67;;
20844;SDS011;10583;49.084;8.646;2023-03-16T06:58:40;19.70;;;19.60;;
20844;SDS011;10583;49.084;8.646;2023-03-16T07:01:06;24.73;;;24.53;;
20844;SDS011;10583;49.084;8.646;2023-03-16T07:03:33;18.90;;;18.80;;
20844;SDS011;10583;49.084;8.646;2023-03-16T07:06:01;18.07;;;17.97;;
20844;SDS011;10583;49.084;8.646;2023-03-16T07:08:28;16.73;;;16.63;;
20844;SDS011;10583;49.084;8.646;2023-03-16T07:10:55;17.77;;;17.67;;
20844;SDS011;10583;49.084;8.646;2023-03-16T07:13:21;16.03;;;15.93;;
20844;SDS011;10583;49.084;8.646;2023-03-16T07:15:48;16.47;;;16.37;;
20844;SDS011;10583;49.084;8.646;2023-03-16T07:18:16;15.47;;;15.37;;
20844;SDS011;10583;49.084;8.646;2023-03-16T07:20:42;15.20;;;15.13;;
20844;SDS011;10583;49.084;8.646;2023-03-16T07:23:10;14.67;;;14.57;;
20844;SDS011;10583;49.084;8.646;2023-03-16T07:25:37;14.73;;;14.67;;
20844;SDS011;10583;49.084;8.646;2023-03-16T07:28:04;14.83;;;14.73;;
20844;SDS011;10583;49.084;8.646;2023-03-16T07:30:31;14.17;;;14.17;;
20844;SDS011;10583;49.084;8.646;2023-03-16T07:32:57;13.37;;;13.33;;
20844;SDS011;10583;49.084;8.646;2023-03-16T07:35:25;11.47;;;11.47;;
20844;SDS011;10583;49.084;8.646;2023-03-16T07:37:52;11.37;;;11.37;;
20844;SDS011;10583;49.084;8.646;2023-03-16T07:40:20;11.10;;;11.10;;
20844;SDS011;10583;49.084;8.646;2023-03-16T07:42:47;10.70;;;10.70;;
20844;SDS011;10583;49.084;8.646;2023-03-16T07:45:14;10.43;;;10.43;;
20844;SDS011;10583;49.084;8.646;2023-03-16T07:47:41;9.20;;;9.20;;
20844;SDS011;10583;49.084;8.646;2023-03-16T07:50:09;9.80;;;9.80;;
20844;SDS011;10583;49.084;8.646;2023-03-16T07:52:37;9.37;;;9.37;;
20844;SDS011;10583;49.084;8.646;2023-03-16T07:55:04;9.47;;;9.47;;
20844;SDS011;10583;49.084;8.646;2023-03-16T07:57:33;8.90;;;8.90;;
20844;SDS011;10583;49.084;8.646;2023-03-16T08:00:00;9.47;;;9.47;;
20844;SDS011;10583;49.084;8.646;2023-03-16T08:02:29;8.50;;;8.50;;
20844;SDS011;10583;49.084;8.646;2023-03-16T08:04:56;9.20;;;9.20;;
20844;SDS011;10583;49.084;8.646;2023-03-16T08:07:22;9.07;;;9.07;;
20844;SDS011;10583;49.084;8.646;2023-03-16T08:09:49;7.93;;;7.93;;
20844;SDS011;10583;49.084;8.646;2023-03-16T08:12:16;8.07;;;8.07;;
20844;SDS011;10583;49.084;8.646;2023-03-16T08:14:44;7.87;;;7.87;;
20844;SDS011;10583;49.084;8.646;2023-03-16T08:17:11;8.27;;;8.27;;
20844;SDS011;10583;49.084;8.646;2023-03-16T08:19:38;8.27;;;8.27;;
20844;SDS011;10583;49.084;8.646;2023-03-16T08:22:05;7.47;;;7.47;;
20844;SDS011;10583;49.084;8.646;2023-03-16T08:24:32;7.70;;;7.70;;
20844;SDS011;10583;49.084;8.646;2023-03-16T08:26:59;7.13;;;7.13;;
20844;SDS011;10583;49.084;8.646;2023-03-16T08:29:25;7.27;;;7.27;;
20844;SDS011;10583;49.084;8.646;2023-03-16T08:31:54;6.80;;;6.80;;
20844;SDS011;10583;49.084;8.646;2023-03-16T08:34:21;7.17;;;7.17;;
20844;SDS011;10583;49.084;8.646;2023-03-16T08:36:48;7.40;;;7.40;;
20844;SDS011;10583;49.084;8.646;2023-03-16T08:39:15;6.97;;;6.97;;
20844;SDS011;10583;49.084;8.646;2023-03-16T08:41:41;7.03;;;7.03;;
20844;SDS011;10583;49.084;8.646;2023-03-16T08:44:09;6.87;;;6.87;;
20844;SDS011;10583;49.084;8.646;2023-03-16T08:46:37;6.40;;;6.40;;
20844;SDS011;10583;49.084;8.646;2023-03-16T08:49:05;6.73;;;6.73;;
20844;SDS011;10583;49.084;8.646;2023-03-16T08:51:32;6.10;;;6.10;;
20844;SDS011;10583;49.084;8.646;2023-03-16T08:53:59;6.10;;;6.10;;
20844;SDS011;10583;49.084;8.646;2023-03-16T08:56:26;6.37;;;6.37;;
20844;SDS011;10583;49.084;8.646;2023-03-16T08:58:54;6.17;;;6.17;;
20844;SDS011;10583;49.084;8.646;2023-03-16T09:01:21;6.43;;;6.43;;
20844;SDS011;10583;49.084;8.646;2023-03-16T09:03:49;6.50;;;6.50;;
20844;SDS011;10583;49.084;8.646;2023-03-16T09:06:18;6.20;;;6.20;;
20844;SDS011;10583;49.084;8.646;2023-03-16T09:08:46;6.50;;;6.50;;
20844;SDS011;10583;49.084;8.646;2023-03-16T09:11:14;6.03;;;6.03;;
20844;SDS011;10583;49.084;8.646;2023-03-16T09:13:42;5.87;;;5.87;;
20844;SDS011;10583;49.084;8.646;2023-03-16T09:16:09;6.73;;;6.73;;
20844;SDS011;10583;49.084;8.646;2023-03-16T09:18:37;6.50;;;6.50;;
20844;SDS011;10583;49.084;8.646;2023-03-16T09:21:05;6.67;;;6.67;;
20844;SDS011;10583;49.084;8.646;2023-03-16T09:23:35;7.30;;;7.30;;
20844;SDS011;10583;49.084;8.646;2023-03-16T09:26:03;6.23;;;6.23;;
20844;SDS011;10583;49.084;8.646;2023-03-16T09:28:31;7.30;;;7.30;;
20844;SDS011;10583;49.084;8.646;2023-03-16T09:31:00;6.97;;;6.97;;
20844;SDS011;10583;49.084;8.646;2023-03-16T09:33:28;6.90;;;6.90;;
20844;SDS011;10583;49.084;8.646;2023-03-16T09:35:56;6.60;;;6.60;;
20844;SDS011;10583;49.084;8.646;2023-03-16T09:38:23;6.80;;;6.80;;
20844;SDS011;10583;49.084;8.646;2023-03-16T09:40:55;6.80;;;6.80;;
20844;SDS011;10583;49.084;8.646;2023-03-16T09:43:28;6.73;;;6.73;;
20844;SDS011;10583;49.084;8.646;2023-03-16T09:46:07;6.43;;;6.43;;
20844;SDS011;10583;49.084;8.646;2023-03-16T09:48:36;6.57;;;6.57;;
20844;SDS011;10583;49.084;8.646;2023-03-16T09:51:06;6.20;;;6.20;;
20844;SDS011;10583;49.084;8.646;2023-03-16T09:53:40;6.53;;;6.53;;
20844;SDS011;10583;49.084;8.646;2023-03-16T09:56:09;6.37;;;6.37;;
20844;SDS011;10583;49.084;8.646;2023-03-16T09:58:41;5.70;;;5.70;;
20844;SDS011;10583;49.084;8.646;2023-03-16T10:01:10;6.03;;;6.03;;
20844;SDS011;10583;49.084;8.646;2023-03-16T10:03:51;5.87;;;5.87;;
20844;SDS011;10583;49.084;8.646;2023-03-16T10:06:27;5.60;;;5.60;;
20844;SDS011;10583;49.084;8.646;2023-03-16T10:08:57;5.40;;;5.40;;
20844;SDS011;10583;49.084;8.646;2023-03-16T10:11:34;5.80;;;5.80;;
20844;SDS011;10583;49.084;8.646;2023-03-16T10:14:08;5.00;;;5.00;;
20844;SDS011;10583;49.084;8.646;2023-03-16T10:16:44;4.83;;;4.83;;
20844;SDS011;10583;49.084;8.646;2023-03-16T10:19:15;4.90;;;4.90;;
20844;SDS011;10583;49.084;8.646;2023-03-16T10:21:47;4.97;;;4.97;;
20844;SDS011;10583;49.084;8.646;2023-03-16T10:24:18;5.30;;;5.30;;
20844;SDS011;10583;49.084;8.646;2023-03-16T10:26:55;4.93;;;4.93;;
20844;SDS011;10583;49.084;8.646;2023-03-16T10:29:24;5.03;;;5.03;;
20844;SDS011;10583;49.084;8.646;2023-03-16T10:31:53;5.17;;;5.17;;
20844;SDS011;10583;49.084;8.646;2023-03-16T10:34:24;5.17;;;5.17;;
20844;SDS011;10583;49.084;8.646;2023-03-16T10:36:51;5.10;;;5.10;;
20844;SDS011;10583;49.084;8.646;2023-03-16T10:39:20;4.63;;;4.63;;
20844;SDS011;10583;49.084;8.646;2023-03-16T10:41:47;4.73;;;4.73;;
20844;SDS011;10583;49.084;8.646;2023-03-16T10:44:23;5.17;;;5.17;;
20844;SDS011;10583;49.084;8.646;2023-03-16T10:46:57;5.07;;;5.07;;
20844;SDS011;10583;49.084;8.646;2023-03-16T10:49:26;5.40;;;5.40;;
20844;SDS011;10583;49.084;8.646;2023-03-16T10:51:54;5.43;;;5.43;;
20844;SDS011;10583;49.084;8.646;2023-03-16T10:54:26;4.30;;;4.30;;
20844;SDS011;10583;49.084;8.646;2023-03-16T10:56:56;4.30;;;4.30;;
20844;SDS011;10583;49.084;8.646;2023-03-16T10:59:27;4.07;;;4.07;;
20844;SDS011;10583;49.084;8.646;2023-03-16T11:01:58;3.90;;;3.90;;
20844;SDS011;10583;49.084;8.646;2023-03-16T11:04:29;3.80;;;3.80;;
20844;SDS011;10583;49.084;8.646;2023-03-16T11:06:56;3.87;;;3.87;;
20844;SDS011;10583;49.084;8.646;2023-03-16T11:09:24;3.30;;;3.30;;
20844;SDS011;10583;49.084;8.646;2023-03-16T11:11:58;3.67;;;3.67;;
20844;SDS011;10583;49.084;8.646;2023-03-16T11:14:27;3.90;;;3.90;;
20844;SDS011;10583;49.084;8.646;2023-03-16T11:16:58;3.87;;;3.87;;
20844;SDS011;10583;49.084;8.646;2023-03-16T11:19:28;4.27;;;4.27;;
20844;SDS011;10583;49.084;8.646;2023-03-16T11:21:57;3.97;;;3.97;;
20844;SDS011;10583;49.084;8.646;2023-03-16T11:24:29;3.57;;;3.57;;
20844;SDS011;10583;49.084;8.646;2023-03-16T11:27:05;3.80;;;3.80;;
20844;SDS011;10583;49.084;8.646;2023-03-16T11:29:45;3.50;;;3.50;;
20844;SDS011;10583;49.084;8.646;2023-03-16T11:32:20;3.30;;;3.30;;
20844;SDS011;10583;49.084;8.646;2023-03-16T11:34:51;3.13;;;3.13;;
20844;SDS011;10583;49.084;8.646;2023-03-16T11:37:22;3.43;;;3.43;;
20844;SDS011;10583;49.084;8.646;2023-03-16T11:40:01;3.93;;;3.93;;
20844;SDS011;10583;49.084;8.646;2023-03-16T11:42:40;3.07;;;3.07;;
20844;SDS011;10583;49.084;8.646;2023-03-16T11:45:18;2.60;;;2.60;;
20844;SDS011;10583;49.084;8.646;2023-03-16T11:47:55;3.40;;;3.40;;
20844;SDS011;10583;49.084;8.646;2023-03-16T11:50:49;2.90;;;2.90;;
20844;SDS011;10583;49.084;8.646;2023-03-16T11:53:28;2.80;;;2.80;;
20844;SDS011;10583;49.084;8.646;2023-03-16T11:56:04;2.60;;;2.60;;
20844;SDS011;10583;49.084;8.646;2023-03-16T11:58:46;2.63;;;2.63;;
20844;SDS011;10583;49.084;8.646;2023-03-16T12:01:22;3.00;;;3.00;;
20844;SDS011;10583;49.084;8.646;2023-03-16T12:03:58;2.90;;;2.90;;
20844;SDS011;10583;49.084;8.646;2023-03-16T12:06:39;3.10;;;3.10;;
20844;SDS011;10583;49.084;8.646;2023-03-16T12:09:29;3.00;;;3.00;;
20844;SDS011;10583;49.084;8.646;2023-03-16T12:12:25;3.00;;;3.00;;
20844;SDS011;10583;49.084;8.646;2023-03-16T12:15:06;2.63;;;2.63;;
20844;SDS011;10583;49.084;8.646;2023-03-16T12:17:54;2.57;;;2.57;;
20844;SDS011;10583;49.084;8.646;2023-03-16T12:20:25;2.80;;;2.80;;
20844;SDS011;10583;49.084;8.646;2023-03-16T12:22:56;2.80;;;2.80;;
20844;SDS011;10583;49.084;8.646;2023-03-16T12:25:28;2.67;;;2.67;;
20844;SDS011;10583;49.084;8.646;2023-03-16T12:27:57;2.77;;;2.77;;
20844;SDS011;10583;49.084;8.646;2023-03-16T12:30:34;2.90;;;2.90;;
20844;SDS011;10583;49.084;8.646;2023-03-16T12:33:10;2.83;;;2.83;;
20844;SDS011;10583;49.084;8.646;2023-03-16T12:35:48;2.50;;;2.50;;
20844;SDS011;10583;49.084;8.646;2023-03-16T12:41:11;2.97;;;2.97;;
20844;SDS011;10583;49.084;8.646;2023-03-16T12:43:52;2.67;;;2.67;;
20844;SDS011;10583;49.084;8.646;2023-03-16T12:46:29;2.70;;;2.70;;
20844;SDS011;10583;49.084;8.646;2023-03-16T12:49:04;2.60;;;2.60;;
20844;SDS011;10583;49.084;8.646;2023-03-16T12:51:34;2.50;;;2.50;;
20844;SDS011;10583;49.084;8.646;2023-03-16T12:54:02;2.20;;;2.20;;
20844;SDS011;10583;49.084;8.646;2023-03-16T12:56:32;2.33;;;2.33;;
20844;SDS011;10583;49.084;8.646;2023-03-16T12:59:01;2.30;;;2.30;;
20844;SDS011;10583;49.084;8.646;2023-03-16T13:01:37;2.50;;;2.50;;
20844;SDS011;10583;49.084;8.646;2023-03-16T13:04:08;2.10;;;2.10;;
20844;SDS011;10583;49.084;8.646;2023-03-16T13:06:40;2.37;;;2.37;;
20844;SDS011;10583;49.084;8.646;2023-03-16T13:09:09;2.20;;;2.20;;
20844;SDS011;10583;49.084;8.646;2023-03-16T13:11:41;2.70;;;2.70;;
20844;SDS011;10583;49.084;8.646;2023-03-16T13:14:14;2.00;;;2.00;;
20844;SDS011;10583;49.084;8.646;2023-03-16T13:17:03;2.90;;;2.90;;
20844;SDS011;10583;49.084;8.646;2023-03-16T13:19:31;2.60;;;2.60;;
20844;SDS011;10583;49.084;8.646;2023-03-16T13:22:03;2.47;;;2.47;;
20844;SDS011;10583;49.084;8.646;2023-03-16T13:24:48;2.23;;;2.23;;
20844;SDS011;10583;49.084;8.646;2023-03-16T13:27:21;2.47;;;2.47;;
20844;SDS011;10583;49.084;8.646;2023-03-16T13:29:51;1.90;;;1.90;;
20844;SDS011;10583;49.084;8.646;2023-03-16T13:32:22;1.97;;;1.97;;
20844;SDS011;10583;49.084;8.646;2023-03-16T13:34:52;2.13;;;2.13;;
20844;SDS011;10583;49.084;8.646;2023-03-16T13:37:23;2.40;;;2.40;;
20844;SDS011;10583;49.084;8.646;2023-03-16T13:39:53;2.00;;;2.00;;
20844;SDS011;10583;49.084;8.646;2023-03-16T13:42:21;2.10;;;2.10;;
20844;SDS011;10583;49.084;8.646;2023-03-16T13:44:51;2.60;;;2.60;;
20844;SDS011;10583;49.084;8.646;2023-03-16T13:47:18;2.43;;;2.43;;
20844;SDS011;10583;49.084;8.646;2023-03-16T13:49:47;2.50;;;2.50;;
20844;SDS011;10583;49.084;8.646;2023-03-16T13:52:17;2.47;;;2.47;;
20844;SDS011;10583;49.084;8.646;2023-03-16T13:54:49;2.10;;;2.10;;
20844;SDS011;10583;49.084;8.646;2023-03-16T13:57:17;2.40;;;2.40;;
20844;SDS011;10583;49.084;8.646;2023-03-16T13:59:47;2.03;;;2.03;;
20844;SDS011;10583;49.084;8.646;2023-03-16T14:02:15;1.80;;;1.80;;
20844;SDS011;10583;49.084;8.646;2023-03-16T14:04:43;2.53;;;2.53;;
20844;SDS011;10583;49.084;8.646;2023-03-16T14:07:14;2.33;;;2.33;;
20844;SDS011;10583;49.084;8.646;2023-03-16T14:09:43;2.60;;;2.60;;
20844;SDS011;10583;49.084;8.646;2023-03-16T14:12:12;2.57;;;2.57;;
20844;SDS011;10583;49.084;8.646;2023-03-16T14:14:40;2.40;;;2.40;;
20844;SDS011;10583;49.084;8.646;2023-03-16T14:17:08;2.10;;;2.10;;
20844;SDS011;10583;49.084;8.646;2023-03-16T14:19:39;2.50;;;2.50;;
20844;SDS011;10583;49.084;8.646;2023-03-16T14:22:11;2.30;;;2.30;;
20844;SDS011;10583;49.084;8.646;2023-03-16T14:24:41;2.10;;;2.10;;
20844;SDS011;10583;49.084;8.646;2023-03-16T14:27:15;1.83;;;1.83;;
20844;SDS011;10583;49.084;8.646;2023-03-16T14:29:45;2.10;;;2.10;;
20844;SDS011;10583;49.084;8.646;2023-03-16T14:32:19;2.20;;;2.20;;
20844;SDS011;10583;49.084;8.646;2023-03-16T14:34:52;2.43;;;2.43;;
20844;SDS011;10583;49.084;8.646;2023-03-16T14:37:20;2.20;;;2.20;;
20844;SDS011;10583;49.084;8.646;2023-03-16T14:39:56;2.40;;;2.40;;
20844;SDS011;10583;49.084;8.646;2023-03-16T14:42:26;2.23;;;2.23;;
20844;SDS011;10583;49.084;8.646;2023-03-16T14:44:55;2.37;;;2.37;;
20844;SDS011;10583;49.084;8.646;2023-03-16T14:47:24;2.43;;;2.43;;
20844;SDS011;10583;49.084;8.646;2023-03-16T14:49:54;2.40;;;2.40;;